createdAt,value
2019-03-29T00:01:08.295Z,88.90
2019-03-29T00:03:37.942Z,88.99
2019-03-29T00:06:07.650Z,88.85
2019-03-29T00:08:37.271Z,88.97
2019-03-29T00:11:07.042Z,88.95
2019-03-29T00:13:36.649Z,89.48
2019-03-29T00:16:06.313Z,89.32
2019-03-29T00:18:36.365Z,89.45
2019-03-29T00:21:06.132Z,89.43
2019-03-29T00:23:36.307Z,89.67
2019-03-29T00:26:06.150Z,89.74
2019-03-29T00:28:36.897Z,89.77
2019-03-29T00:31:06.768Z,89.66
2019-03-29T00:33:36.430Z,90.19
2019-03-29T00:36:07.412Z,90.12
2019-03-29T00:38:37.267Z,90.13
2019-03-29T00:41:06.894Z,90.10
2019-03-29T00:43:36.534Z,90.31
2019-03-29T00:46:06.181Z,90.73
2019-03-29T00:48:36.140Z,90.68
2019-03-29T00:51:05.801Z,90.48
2019-03-29T00:53:35.945Z,90.14
2019-03-29T00:56:06.128Z,90.33
2019-03-29T00:58:35.788Z,90.84
2019-03-29T01:01:05.578Z,90.69
2019-03-29T01:03:35.368Z,90.60
2019-03-29T01:06:05.017Z,90.67
2019-03-29T01:08:34.684Z,90.67
2019-03-29T01:11:04.313Z,90.79
2019-03-29T01:13:34.424Z,91.02
2019-03-29T01:16:04.115Z,91.02
2019-03-29T01:18:34.993Z,91.13
2019-03-29T01:21:04.867Z,91.09
2019-03-29T01:23:35.004Z,91.19
2019-03-29T01:26:04.693Z,91.34
2019-03-29T01:28:34.752Z,91.84
2019-03-29T01:31:04.348Z,91.81
2019-03-29T01:33:34.143Z,91.98
2019-03-29T01:36:03.899Z,91.82
2019-03-29T01:38:33.615Z,91.81
2019-03-29T01:41:03.377Z,91.97
2019-03-29T01:43:33.499Z,92.00
2019-03-29T01:46:03.127Z,92.10
2019-03-29T01:48:32.895Z,92.26
2019-03-29T01:51:02.498Z,91.60
2019-03-29T01:53:32.323Z,91.78
2019-03-29T01:56:02.138Z,92.31
2019-03-29T01:58:31.795Z,92.05
2019-03-29T02:01:02.283Z,91.99
2019-03-29T02:03:32.602Z,93.05
2019-03-29T02:06:02.552Z,93.79
2019-03-29T02:08:35.887Z,94.12
2019-03-29T02:11:03.840Z,93.95
2019-03-29T02:13:33.446Z,94.20
2019-03-29T02:16:03.817Z,95.33
2019-03-29T02:18:33.556Z,95.18
2019-03-29T02:21:03.178Z,95.16
2019-03-29T02:23:33.061Z,94.57
2019-03-29T02:26:02.922Z,94.24
2019-03-29T02:28:32.891Z,93.99
2019-03-29T02:31:02.812Z,93.99
2019-03-29T02:33:32.498Z,93.88
2019-03-29T02:36:02.356Z,94.20
2019-03-29T02:38:32.114Z,94.23
2019-03-29T02:41:02.005Z,94.13
2019-03-29T02:43:32.050Z,93.40
2019-03-29T02:46:01.852Z,93.27
2019-03-29T02:48:31.444Z,93.45
2019-03-29T02:51:01.221Z,93.43
2019-03-29T02:53:30.843Z,93.78
2019-03-29T02:56:00.500Z,93.72
2019-03-29T02:58:30.286Z,93.93
2019-03-29T03:00:59.934Z,93.88
2019-03-29T03:03:29.494Z,93.44
2019-03-29T03:05:59.183Z,93.48
2019-03-29T03:08:32.952Z,94.33
2019-03-29T03:11:00.585Z,94.82
2019-03-29T03:13:30.415Z,95.54
2019-03-29T03:16:00.068Z,96.05
2019-03-29T03:18:29.690Z,96.60
2019-03-29T03:20:59.334Z,96.66
2019-03-29T03:23:28.993Z,97.00
2019-03-29T03:25:58.991Z,97.11
2019-03-29T03:28:28.774Z,96.72
2019-03-29T03:30:58.387Z,96.41
2019-03-29T03:33:27.965Z,96.39
2019-03-29T03:35:57.583Z,96.40
2019-03-29T03:38:27.251Z,96.77
2019-03-29T03:40:57.086Z,96.90
2019-03-29T03:43:26.889Z,96.90
2019-03-29T03:45:56.715Z,96.72
2019-03-29T03:48:26.499Z,96.56
2019-03-29T03:50:56.134Z,96.47
2019-03-29T03:53:25.720Z,96.66
2019-03-29T03:55:55.870Z,96.60
2019-03-29T03:58:26.633Z,96.75
2019-03-29T04:00:59.686Z,96.88
2019-03-29T04:03:29.290Z,97.00
2019-03-29T04:05:59.071Z,97.04
2019-03-29T04:08:29.822Z,97.75
2019-03-29T04:10:59.747Z,97.75
2019-03-29T04:13:29.369Z,97.27
2019-03-29T04:15:59.176Z,96.99
2019-03-29T04:18:28.792Z,96.72
2019-03-29T04:20:58.400Z,96.20
2019-03-29T04:23:28.004Z,96.17
2019-03-29T04:25:57.692Z,96.04
2019-03-29T04:28:27.296Z,95.98
2019-03-29T04:30:57.145Z,95.96
2019-03-29T04:33:26.945Z,95.88
2019-03-29T04:35:56.742Z,95.51
2019-03-29T04:38:26.386Z,95.53
2019-03-29T04:40:56.273Z,95.90
2019-03-29T04:43:26.300Z,96.24
2019-03-29T04:45:55.906Z,96.42
2019-03-29T04:48:25.826Z,96.83
2019-03-29T04:50:55.900Z,96.89
2019-03-29T04:53:25.519Z,96.87
2019-03-29T04:55:55.222Z,97.29
2019-03-29T04:58:25.413Z,97.56
2019-03-29T05:00:55.599Z,97.84
2019-03-29T05:03:25.373Z,97.96
2019-03-29T05:05:55.087Z,98.11
2019-03-29T05:08:24.749Z,97.95
2019-03-29T05:10:55.773Z,97.82
2019-03-29T05:13:25.856Z,97.75
2019-03-29T05:15:55.526Z,97.63
2019-03-29T05:18:25.128Z,96.77
2019-03-29T05:20:54.849Z,96.08
2019-03-29T05:23:24.609Z,96.47
2019-03-29T05:25:54.261Z,96.92
2019-03-29T05:28:24.248Z,97.11
2019-03-29T05:30:54.198Z,97.25
2019-03-29T05:33:25.432Z,97.25
2019-03-29T05:35:55.046Z,97.26
2019-03-29T05:38:24.747Z,97.40
2019-03-29T05:40:54.475Z,97.76
2019-03-29T05:43:24.677Z,97.93
2019-03-29T05:45:54.403Z,97.88
2019-03-29T05:48:24.066Z,97.95
2019-03-29T05:50:53.835Z,96.35
2019-03-29T05:53:23.505Z,96.35
2019-03-29T05:55:53.519Z,95.36
2019-03-29T05:58:23.447Z,94.38
2019-03-29T06:00:53.483Z,93.18
2019-03-29T06:03:23.412Z,93.81
2019-03-29T06:05:53.006Z,94.14
2019-03-29T06:08:23.046Z,94.10
2019-03-29T06:10:53.022Z,93.64
2019-03-29T06:13:22.754Z,92.16
2019-03-29T06:15:52.333Z,91.41
2019-03-29T06:18:22.209Z,90.19
2019-03-29T06:20:51.816Z,89.19
2019-03-29T06:23:21.717Z,88.72
2019-03-29T06:25:51.362Z,88.34
2019-03-29T06:28:21.217Z,87.58
2019-03-29T06:30:50.878Z,87.15
2019-03-29T06:33:20.543Z,86.25
2019-03-29T06:35:51.799Z,85.77
2019-03-29T06:38:24.063Z,85.54
2019-03-29T06:41:02.850Z,85.63
2019-03-29T06:43:25.318Z,85.38
2019-03-29T06:45:55.307Z,85.04
2019-03-29T06:48:25.120Z,84.91
2019-03-29T06:50:54.752Z,83.63
2019-03-29T06:53:24.704Z,82.80
2019-03-29T06:55:54.350Z,81.68
2019-03-29T06:58:24.226Z,81.90
2019-03-29T07:00:53.867Z,80.85
2019-03-29T07:03:23.749Z,80.63
2019-03-29T07:05:53.388Z,80.25
2019-03-29T07:08:23.265Z,80.96
2019-03-29T07:10:52.904Z,80.06
2019-03-29T07:13:22.677Z,79.76
2019-03-29T07:15:52.306Z,78.98
2019-03-29T07:18:22.413Z,79.26
2019-03-29T07:20:52.393Z,77.95
2019-03-29T07:23:22.228Z,79.32
2019-03-29T07:25:52.073Z,78.25
2019-03-29T07:28:22.073Z,76.92
2019-03-29T07:30:52.047Z,77.86
2019-03-29T07:33:21.727Z,76.76
2019-03-29T07:35:51.355Z,77.49
2019-03-29T07:38:20.937Z,76.85
2019-03-29T07:40:50.723Z,74.88
2019-03-29T07:43:23.818Z,74.97
2019-03-29T07:45:52.062Z,74.87
2019-03-29T07:48:21.793Z,73.94
2019-03-29T07:50:52.866Z,74.14
2019-03-29T07:53:22.616Z,74.43
2019-03-29T07:55:52.230Z,74.55
2019-03-29T07:58:21.967Z,74.09
2019-03-29T08:00:51.853Z,73.48
2019-03-29T08:03:23.372Z,73.02
2019-03-29T08:05:52.918Z,72.10
2019-03-29T08:08:25.127Z,72.52
2019-03-29T08:10:54.352Z,71.59
2019-03-29T08:13:24.578Z,71.37
2019-03-29T08:15:54.463Z,70.91
2019-03-29T08:18:24.175Z,70.60
2019-03-29T08:20:53.921Z,69.58
2019-03-29T08:23:23.575Z,69.89
2019-03-29T08:25:55.754Z,69.19
2019-03-29T08:28:25.582Z,69.75
2019-03-29T08:30:55.187Z,68.81
2019-03-29T08:33:24.860Z,68.06
2019-03-29T08:35:54.580Z,68.10
2019-03-29T08:38:24.599Z,68.74
2019-03-29T08:40:54.449Z,68.54
2019-03-29T08:43:24.450Z,65.88
2019-03-29T08:45:57.352Z,65.89
2019-03-29T08:48:25.608Z,65.00
2019-03-29T08:50:55.717Z,65.61
2019-03-29T08:53:27.388Z,65.73
2019-03-29T08:55:56.890Z,65.02
2019-03-29T08:58:26.722Z,64.69
2019-03-29T09:00:56.401Z,65.27
2019-03-29T09:03:26.709Z,64.23
2019-03-29T09:05:57.180Z,64.87
2019-03-29T09:08:27.027Z,64.18
2019-03-29T09:10:56.746Z,64.58
2019-03-29T09:13:26.583Z,64.57
2019-03-29T09:15:56.242Z,63.71
2019-03-29T09:18:26.440Z,63.09
2019-03-29T09:20:56.091Z,62.70
2019-03-29T09:23:25.931Z,62.18
2019-03-29T09:25:55.589Z,61.75
2019-03-29T09:28:25.258Z,60.48
2019-03-29T09:30:56.566Z,59.76
2019-03-29T09:33:26.232Z,60.27
2019-03-29T09:35:56.234Z,59.71
2019-03-29T09:38:25.878Z,59.56
2019-03-29T09:40:58.796Z,58.37
2019-03-29T09:43:27.034Z,58.77
2019-03-29T09:45:58.274Z,58.32
2019-03-29T09:48:37.017Z,57.95
2019-03-29T09:51:07.565Z,57.18
2019-03-29T09:53:41.618Z,57.11
2019-03-29T09:56:12.070Z,57.35
2019-03-29T09:58:45.086Z,55.87
2019-03-29T10:01:20.676Z,55.50
2019-03-29T10:03:50.916Z,55.66
2019-03-29T10:06:20.578Z,55.23
2019-03-29T10:08:53.302Z,55.41
2019-03-29T10:11:22.381Z,54.74
2019-03-29T10:13:51.971Z,54.33
2019-03-29T10:16:21.632Z,54.14
2019-03-29T10:18:51.255Z,54.19
2019-03-29T10:21:21.344Z,55.15
2019-03-29T10:23:51.043Z,54.94
2019-03-29T10:26:20.860Z,53.20
2019-03-29T10:28:50.592Z,53.04
2019-03-29T10:31:31.507Z,54.00
2019-03-29T10:33:51.519Z,52.80
2019-03-29T10:36:21.442Z,52.27
2019-03-29T10:38:51.278Z,51.33
2019-03-29T10:41:22.725Z,51.05
2019-03-29T10:43:52.848Z,50.72
2019-03-29T10:46:25.120Z,51.46
2019-03-29T10:48:54.777Z,49.45
2019-03-29T10:51:26.169Z,48.45
2019-03-29T10:53:55.781Z,49.01
2019-03-29T10:56:34.042Z,48.56
2019-03-29T10:58:57.675Z,48.84
2019-03-29T11:01:27.364Z,47.65
2019-03-29T11:03:57.076Z,47.60
2019-03-29T11:06:27.506Z,47.23
2019-03-29T11:08:57.455Z,47.56
2019-03-29T11:11:27.057Z,46.87
2019-03-29T11:13:56.948Z,46.57
2019-03-29T11:16:26.773Z,45.06
2019-03-29T11:18:57.698Z,46.18
2019-03-29T11:21:27.550Z,44.70
2019-03-29T11:23:57.314Z,44.50
2019-03-29T11:26:27.349Z,45.59
2019-03-29T11:28:58.015Z,43.19
2019-03-29T11:31:27.653Z,43.43
2019-03-29T11:33:57.671Z,44.69
2019-03-29T11:36:29.693Z,45.80
2019-03-29T11:38:59.301Z,46.20
2019-03-29T11:41:29.118Z,44.48
2019-03-29T11:43:59.305Z,46.18
2019-03-29T11:46:29.108Z,46.73
2019-03-29T11:48:58.786Z,46.80
2019-03-29T11:51:28.608Z,45.35
2019-03-29T11:53:58.264Z,46.19
2019-03-29T11:56:27.895Z,46.48
2019-03-29T11:58:57.533Z,45.64
2019-03-29T12:01:27.773Z,45.46
2019-03-29T12:03:57.676Z,45.30
2019-03-29T12:06:27.462Z,45.19
2019-03-29T12:08:57.368Z,44.38
2019-03-29T12:11:27.058Z,44.72
2019-03-29T12:13:56.889Z,44.80
2019-03-29T12:16:26.517Z,44.43
2019-03-29T12:18:56.273Z,44.87
2019-03-29T12:21:25.955Z,44.05
2019-03-29T12:23:55.603Z,43.90
2019-03-29T12:26:25.353Z,43.65
2019-03-29T12:28:54.996Z,44.26
2019-03-29T12:31:25.244Z,42.97
2019-03-29T12:33:54.974Z,43.94
2019-03-29T12:36:24.815Z,44.28
2019-03-29T12:38:55.835Z,44.29
2019-03-29T12:41:25.597Z,44.02
2019-03-29T12:43:56.275Z,43.09
2019-03-29T12:46:26.187Z,42.81
2019-03-29T12:48:55.924Z,42.00
2019-03-29T12:51:26.933Z,42.78
2019-03-29T12:53:57.970Z,43.36
2019-03-29T12:56:27.775Z,42.45
2019-03-29T12:58:57.468Z,42.57
2019-03-29T13:01:38.462Z,42.25
2019-03-29T13:03:59.071Z,42.13
2019-03-29T13:06:28.733Z,41.90
2019-03-29T13:08:58.342Z,42.38
2019-03-29T13:11:28.023Z,41.35
2019-03-29T13:14:09.394Z,42.56
2019-03-29T13:16:29.394Z,41.93
2019-03-29T13:18:59.046Z,41.42
2019-03-29T13:21:28.796Z,41.24
2019-03-29T13:23:58.705Z,41.28
2019-03-29T13:26:28.397Z,41.54
2019-03-29T13:28:58.165Z,41.25
2019-03-29T13:31:28.451Z,40.94
2019-03-29T13:33:58.259Z,41.10
2019-03-29T13:36:27.892Z,40.98
2019-03-29T13:38:57.682Z,41.29
2019-03-29T13:41:27.444Z,41.40
2019-03-29T13:43:57.305Z,41.43
2019-03-29T13:46:26.995Z,40.79
2019-03-29T13:48:56.594Z,41.04
2019-03-29T13:51:26.225Z,40.11
2019-03-29T13:53:56.298Z,40.34
2019-03-29T13:56:26.029Z,39.72
2019-03-29T13:58:55.785Z,40.16
2019-03-29T14:01:25.473Z,40.50
2019-03-29T14:03:55.307Z,41.15
2019-03-29T14:06:25.228Z,40.73
2019-03-29T14:08:55.536Z,40.55
2019-03-29T14:11:25.072Z,40.57
2019-03-29T14:13:55.226Z,40.62
2019-03-29T14:16:24.838Z,40.44
2019-03-29T14:18:55.865Z,40.80
2019-03-29T14:21:25.739Z,40.87
2019-03-29T14:23:55.420Z,40.59
2019-03-29T14:26:25.134Z,40.44
2019-03-29T14:28:55.047Z,40.44
2019-03-29T14:31:24.796Z,41.07
2019-03-29T14:33:54.500Z,40.38
2019-03-29T14:36:24.311Z,39.74
2019-03-29T14:38:53.953Z,39.43
2019-03-29T14:41:24.105Z,39.79
2019-03-29T14:43:54.007Z,39.41
2019-03-29T14:46:24.090Z,39.08
2019-03-29T14:48:54.679Z,39.12
2019-03-29T14:51:24.842Z,39.06
2019-03-29T14:53:54.509Z,38.92
2019-03-29T14:56:24.292Z,39.67
2019-03-29T14:58:54.156Z,39.18
2019-03-29T15:01:24.475Z,39.39
2019-03-29T15:03:54.569Z,39.17
2019-03-29T15:06:24.344Z,38.66
2019-03-29T15:08:55.346Z,39.14
2019-03-29T15:11:25.217Z,38.94
2019-03-29T15:13:55.288Z,38.40
2019-03-29T15:16:24.996Z,38.74
2019-03-29T15:18:54.838Z,38.94
2019-03-29T15:21:24.489Z,38.63
2019-03-29T15:23:54.537Z,38.82
2019-03-29T15:26:26.493Z,38.92
2019-03-29T15:28:57.568Z,38.92
2019-03-29T15:31:28.827Z,38.79
2019-03-29T15:33:59.221Z,38.44
2019-03-29T15:36:29.707Z,39.30
2019-03-29T15:39:00.419Z,38.96
2019-03-29T15:41:30.130Z,39.59
2019-03-29T15:44:00.775Z,40.04
2019-03-29T15:46:31.266Z,39.23
2019-03-29T15:49:01.218Z,39.10
2019-03-29T15:51:30.945Z,38.81
2019-03-29T15:54:00.679Z,39.21
2019-03-29T15:56:30.347Z,38.97
2019-03-29T15:59:00.143Z,39.27
2019-03-29T16:01:30.109Z,39.75
2019-03-29T16:03:59.856Z,39.67
2019-03-29T16:06:29.781Z,39.05
2019-03-29T16:08:59.792Z,38.90
2019-03-29T16:11:29.433Z,39.45
2019-03-29T16:13:59.066Z,40.42
2019-03-29T16:16:28.721Z,40.11
2019-03-29T16:18:58.546Z,39.90
2019-03-29T16:21:28.748Z,39.62
2019-03-29T16:23:58.584Z,40.08
2019-03-29T16:26:29.652Z,40.33
2019-03-29T16:29:02.962Z,39.89
2019-03-29T16:31:32.741Z,39.41
2019-03-29T16:34:03.619Z,40.29
2019-03-29T16:36:33.346Z,40.10
2019-03-29T16:39:05.012Z,39.91
2019-03-29T16:41:34.644Z,39.92
2019-03-29T16:44:04.788Z,40.02
2019-03-29T16:46:36.622Z,40.21
2019-03-29T16:49:06.313Z,40.18
2019-03-29T16:51:36.494Z,40.90
2019-03-29T16:54:06.235Z,40.94
2019-03-29T16:56:35.865Z,40.84
2019-03-29T16:59:05.617Z,40.87
2019-03-29T17:01:35.404Z,40.64
2019-03-29T17:04:05.281Z,40.82
2019-03-29T17:06:35.408Z,40.45
2019-03-29T17:09:06.860Z,40.31
2019-03-29T17:11:36.720Z,40.01
2019-03-29T17:14:06.398Z,39.06
2019-03-29T17:16:36.079Z,39.18
2019-03-29T17:19:05.724Z,39.08
2019-03-29T17:21:35.772Z,39.48
2019-03-29T17:24:05.377Z,39.94
2019-03-29T17:26:35.118Z,39.82
2019-03-29T17:29:05.095Z,39.81
2019-03-29T17:31:34.711Z,40.22
2019-03-29T17:34:04.499Z,40.79
2019-03-29T17:36:34.256Z,40.73
2019-03-29T17:39:05.004Z,40.50
2019-03-29T17:41:34.656Z,40.83
2019-03-29T17:44:04.430Z,41.02
2019-03-29T17:46:34.101Z,40.92
2019-03-29T17:49:03.755Z,41.24
2019-03-29T17:51:33.397Z,41.75
2019-03-29T17:54:03.575Z,41.78
2019-03-29T17:56:33.230Z,41.95
2019-03-29T17:59:02.998Z,42.24
2019-03-29T18:01:35.078Z,42.70
2019-03-29T18:04:04.842Z,43.17
2019-03-29T18:06:34.534Z,43.50
2019-03-29T18:09:05.180Z,43.94
2019-03-29T18:11:35.117Z,44.58
2019-03-29T18:14:04.796Z,46.12
2019-03-29T18:16:34.621Z,45.47
2019-03-29T18:19:04.228Z,45.47
2019-03-29T18:21:33.857Z,45.88
2019-03-29T18:24:04.666Z,46.14
2019-03-29T18:26:34.343Z,46.45
2019-03-29T18:29:04.108Z,47.16
2019-03-29T18:31:39.127Z,48.22
2019-03-29T18:34:10.129Z,48.66
2019-03-29T18:36:40.601Z,47.85
2019-03-29T18:39:10.651Z,48.36
2019-03-29T18:41:40.392Z,48.88
2019-03-29T18:44:10.206Z,49.92
2019-03-29T18:46:44.886Z,50.79
2019-03-29T18:49:11.390Z,51.46
2019-03-29T18:51:41.233Z,51.95
2019-03-29T18:54:10.915Z,52.44
2019-03-29T18:56:41.142Z,52.88
2019-03-29T18:59:10.765Z,53.24
2019-03-29T19:01:40.545Z,53.98
2019-03-29T19:04:10.203Z,54.47
2019-03-29T19:06:40.557Z,55.40
2019-03-29T19:09:10.321Z,56.26
2019-03-29T19:11:40.248Z,57.16
2019-03-29T19:14:09.912Z,56.90
2019-03-29T19:16:39.648Z,57.39
2019-03-29T19:19:11.701Z,57.67
2019-03-29T19:21:41.532Z,58.26
2019-03-29T19:24:11.289Z,57.91
2019-03-29T19:26:41.642Z,58.07
2019-03-29T19:29:11.779Z,58.67
2019-03-29T19:31:41.421Z,58.78
2019-03-29T19:34:11.549Z,59.34
2019-03-29T19:36:41.123Z,59.83
2019-03-29T19:39:10.813Z,59.98
2019-03-29T19:41:40.537Z,60.38
2019-03-29T19:44:12.942Z,60.92
2019-03-29T19:46:41.507Z,61.67
2019-03-29T19:49:11.414Z,62.20
2019-03-29T19:51:41.089Z,62.50
2019-03-29T19:54:10.820Z,62.83
2019-03-29T19:56:40.876Z,63.32
2019-03-29T19:59:10.890Z,63.40
2019-03-29T20:01:41.124Z,63.63
2019-03-29T20:04:11.441Z,64.08
2019-03-29T20:06:41.141Z,64.58
2019-03-29T20:09:10.940Z,64.67
2019-03-29T20:11:40.734Z,64.75
2019-03-29T20:14:10.488Z,64.63
2019-03-29T20:16:40.438Z,64.68
2019-03-29T20:19:10.256Z,64.40
2019-03-29T20:21:40.228Z,63.80
2019-03-29T20:24:10.712Z,64.47
2019-03-29T20:26:40.676Z,64.59
2019-03-29T20:29:10.540Z,64.26
2019-03-29T20:31:40.467Z,64.41
2019-03-29T20:34:11.609Z,64.91
2019-03-29T20:36:42.614Z,64.88
2019-03-29T20:39:12.512Z,64.86
2019-03-29T20:41:42.416Z,65.21
2019-03-29T20:44:12.099Z,65.38
2019-03-29T20:46:41.958Z,65.53
2019-03-29T20:49:12.058Z,66.40
2019-03-29T20:51:41.847Z,66.57
2019-03-29T20:54:12.045Z,66.85
2019-03-29T20:56:41.895Z,66.84
2019-03-29T20:59:11.854Z,66.98
2019-03-29T21:01:42.697Z,67.83
2019-03-29T21:04:12.592Z,68.09
2019-03-29T21:06:42.636Z,68.75
2019-03-29T21:09:12.526Z,68.84
2019-03-29T21:11:42.270Z,69.35
2019-03-29T21:14:13.266Z,69.43
2019-03-29T21:16:42.980Z,69.67
2019-03-29T21:19:12.833Z,69.87
2019-03-29T21:21:42.632Z,70.01
2019-03-29T21:24:12.346Z,70.76
2019-03-29T21:26:42.036Z,70.39
2019-03-29T21:29:11.907Z,70.38
2019-03-29T21:31:41.543Z,70.20
2019-03-29T21:34:11.334Z,70.52
2019-03-29T21:36:41.086Z,70.80
2019-03-29T21:39:12.710Z,71.31
2019-03-29T21:41:42.692Z,71.39
2019-03-29T21:44:12.484Z,71.57
2019-03-29T21:46:42.282Z,71.73
2019-03-29T21:49:11.932Z,72.74
2019-03-29T21:51:42.056Z,73.08
2019-03-29T21:54:11.904Z,73.17
2019-03-29T21:56:41.595Z,73.08
2019-03-29T21:59:11.361Z,73.21
2019-03-29T22:01:41.056Z,73.18
2019-03-29T22:04:11.085Z,73.46
2019-03-29T22:06:40.719Z,73.67
2019-03-29T22:09:10.882Z,74.14
2019-03-29T22:11:40.664Z,74.62
2019-03-29T22:14:10.790Z,75.19
2019-03-29T22:16:40.918Z,74.94
2019-03-29T22:19:10.709Z,75.12
2019-03-29T22:21:40.513Z,75.20
2019-03-29T22:24:10.326Z,75.76
2019-03-29T22:26:40.014Z,76.16
2019-03-29T22:29:09.793Z,76.08
2019-03-29T22:31:39.607Z,76.75
2019-03-29T22:34:09.668Z,77.14
2019-03-29T22:36:39.303Z,76.65
2019-03-29T22:39:09.344Z,76.74
2019-03-29T22:41:39.203Z,76.80
2019-03-29T22:44:08.990Z,77.51
2019-03-29T22:46:38.665Z,77.83
2019-03-29T22:49:08.796Z,78.18
2019-03-29T22:51:39.109Z,78.13
2019-03-29T22:54:08.793Z,78.20
2019-03-29T22:56:38.492Z,78.77
2019-03-29T22:59:08.106Z,78.30
2019-03-29T23:01:41.173Z,78.36
2019-03-29T23:04:10.833Z,78.99
2019-03-29T23:06:41.159Z,79.02
2019-03-29T23:09:11.894Z,78.50
2019-03-29T23:11:42.044Z,78.51
2019-03-29T23:14:11.895Z,78.90
2019-03-29T23:16:42.179Z,78.92
2019-03-29T23:19:12.002Z,78.49
2019-03-29T23:21:41.702Z,78.64
2019-03-29T23:24:11.690Z,78.33
2019-03-29T23:26:41.382Z,77.92
2019-03-29T23:29:11.539Z,78.71
2019-03-29T23:31:41.442Z,78.81
2019-03-29T23:34:11.395Z,78.79
2019-03-29T23:36:40.997Z,78.95
2019-03-29T23:39:10.744Z,79.24
2019-03-29T23:41:40.612Z,79.67
2019-03-29T23:44:10.345Z,80.46
2019-03-29T23:46:40.014Z,80.56
2019-03-29T23:49:20.465Z,81.15
2019-03-29T23:51:41.150Z,80.91
2019-03-29T23:54:11.065Z,81.01
2019-03-29T23:56:40.839Z,81.23
2019-03-29T23:59:10.858Z,81.26
